sensor_id;sensor_type;location;lat;lon;timestamp;pressure;altitude;pressure_sealevel;temperature;humidity
50093;BME280;35974;47.752;10.290;2023-02-23T00:01:54;93518.38;;;7.75;88.66
50093;BME280;35974;47.752;10.290;2023-02-23T00:04:22;93504.31;;;7.62;88.83
50093;BME280;35974;47.752;10.290;2023-02-23T00:06:50;93511.97;;;7.70;88.73
50093;BME280;35974;47.752;10.290;2023-02-23T00:09:17;93499.13;;;7.69;88.66
50093;BME280;35974;47.752;10.290;2023-02-23T00:11:51;93478.66;;;7.59;88.37
50093;BME280;35974;47.752;10.290;2023-02-23T00:14:18;93499.88;;;7.56;88.41
50093;BME280;35974;47.752;10.290;2023-02-23T00:16:45;93507.13;;;7.67;88.80
50093;BME280;35974;47.752;10.290;2023-02-23T00:19:11;93480.97;;;7.41;89.31
50093;BME280;35974;47.752;10.290;2023-02-23T00:21:40;93502.25;;;7.44;89.42
50093;BME280;35974;47.752;10.290;2023-02-23T00:24:08;93492.19;;;7.35;89.37
50093;BME280;35974;47.752;10.290;2023-02-23T00:26:37;93499.88;;;7.56;89.19
50093;BME280;35974;47.752;10.290;2023-02-23T00:29:07;93493.50;;;7.65;88.23
50093;BME280;35974;47.752;10.290;2023-02-23T00:31:34;93478.53;;;7.32;89.30
50093;BME280;35974;47.752;10.290;2023-02-23T00:34:02;93498.91;;;7.22;89.64
50093;BME280;35974;47.752;10.290;2023-02-23T00:36:33;93476.88;;;7.18;89.10
50093;BME280;35974;47.752;10.290;2023-02-23T00:39:03;93489.19;;;7.03;90.69
50093;BME280;35974;47.752;10.290;2023-02-23T00:41:44;93480.50;;;6.89;91.09
50093;BME280;35974;47.752;10.290;2023-02-23T00:44:12;93504.44;;;7.06;91.24
50093;BME280;35974;47.752;10.290;2023-02-23T00:46:43;93522.03;;;7.04;91.75
50093;BME280;35974;47.752;10.290;2023-02-23T00:49:12;93522.63;;;7.06;91.98
50093;BME280;35974;47.752;10.290;2023-02-23T00:51:38;93509.78;;;6.97;92.14
50093;BME280;35974;47.752;10.290;2023-02-23T00:54:05;93512.84;;;7.08;92.47
50093;BME280;35974;47.752;10.290;2023-02-23T00:56:32;93513.53;;;7.23;92.16
50093;BME280;35974;47.752;10.290;2023-02-23T00:59:00;93498.44;;;7.05;92.29
50093;BME280;35974;47.752;10.290;2023-02-23T01:01:26;93480.72;;;6.87;92.82
50093;BME280;35974;47.752;10.290;2023-02-23T01:03:53;93504.19;;;7.01;92.44
50093;BME280;35974;47.752;10.290;2023-02-23T01:06:19;93515.31;;;7.23;91.69
50093;BME280;35974;47.752;10.290;2023-02-23T01:08:48;93504.50;;;7.19;91.72
50093;BME280;35974;47.752;10.290;2023-02-23T01:11:18;93494.09;;;7.19;90.69
50093;BME280;35974;47.752;10.290;2023-02-23T01:13:47;93513.69;;;7.15;91.50
50093;BME280;35974;47.752;10.290;2023-02-23T01:16:16;93512.00;;;7.01;91.91
50093;BME280;35974;47.752;10.290;2023-02-23T01:18:44;93519.97;;;6.92;92.12
50093;BME280;35974;47.752;10.290;2023-02-23T01:21:26;93507.94;;;6.91;92.24
50093;BME280;35974;47.752;10.290;2023-02-23T01:23:53;93509.63;;;7.06;91.76
50093;BME280;35974;47.752;10.290;2023-02-23T01:26:23;93505.19;;;7.00;91.56
50093;BME280;35974;47.752;10.290;2023-02-23T01:28:55;93509.09;;;6.89;92.17
50093;BME280;35974;47.752;10.290;2023-02-23T01:31:23;93508.00;;;7.05;91.56
50093;BME280;35974;47.752;10.290;2023-02-23T01:33:58;93488.25;;;6.82;92.17
50093;BME280;35974;47.752;10.290;2023-02-23T01:36:30;93506.28;;;6.84;93.23
50093;BME280;35974;47.752;10.290;2023-02-23T01:38:58;93492.25;;;6.78;93.03
50093;BME280;35974;47.752;10.290;2023-02-23T01:41:27;93485.75;;;6.67;94.12
50093;BME280;35974;47.752;10.290;2023-02-23T01:43:55;93501.94;;;6.91;94.06
50093;BME280;35974;47.752;10.290;2023-02-23T01:46:22;93499.03;;;6.79;94.52
50093;BME280;35974;47.752;10.290;2023-02-23T01:48:51;93492.63;;;6.75;95.02
50093;BME280;35974;47.752;10.290;2023-02-23T01:51:25;93492.25;;;6.78;95.23
50093;BME280;35974;47.752;10.290;2023-02-23T01:54:15;93499.03;;;6.79;96.48
50093;BME280;35974;47.752;10.290;2023-02-23T01:56:46;93481.75;;;6.65;98.39
50093;BME280;35974;47.752;10.290;2023-02-23T01:59:31;93496.06;;;6.82;98.36
50093;BME280;35974;47.752;10.290;2023-02-23T02:01:59;93491.72;;;6.89;97.52
50093;BME280;35974;47.752;10.290;2023-02-23T02:04:27;93467.38;;;6.69;97.82
50093;BME280;35974;47.752;10.290;2023-02-23T02:06:57;93474.94;;;6.64;98.40
50093;BME280;35974;47.752;10.290;2023-02-23T02:09:26;93464.63;;;6.77;98.09
50093;BME280;35974;47.752;10.290;2023-02-23T02:11:53;93435.63;;;6.45;98.43
50093;BME280;35974;47.752;10.290;2023-02-23T02:14:24;93477.91;;;6.60;99.04
50093;BME280;35974;47.752;10.290;2023-02-23T02:22:28;93493.75;;;6.66;100.00
50093;BME280;35974;47.752;10.290;2023-02-23T02:25:25;93496.13;;;6.60;100.00
50093;BME280;35974;47.752;10.290;2023-02-23T02:42:26;93457.06;;;6.26;100.00
50093;BME280;35974;47.752;10.290;2023-02-23T02:45:14;93441.34;;;6.12;100.00
50093;BME280;35974;47.752;10.290;2023-02-23T02:47:55;93478.28;;;6.29;100.00
50093;BME280;35974;47.752;10.290;2023-02-23T02:50:26;93479.81;;;6.23;100.00
50093;BME280;35974;47.752;10.290;2023-02-23T02:53:04;93486.59;;;6.46;100.00
50093;BME280;35974;47.752;10.290;2023-02-23T02:55:33;93459.72;;;6.32;100.00
50093;BME280;35974;47.752;10.290;2023-02-23T02:58:05;93465.09;;;6.31;100.00
50093;BME280;35974;47.752;10.290;2023-02-23T03:00:38;93480.78;;;6.44;100.00
50093;BME280;35974;47.752;10.290;2023-02-23T03:03:42;93459.81;;;6.17;100.00
50093;BME280;35974;47.752;10.290;2023-02-23T03:06:32;93464.53;;;6.14;100.00
50093;BME280;35974;47.752;10.290;2023-02-23T03:12:32;93458.06;;;6.25;100.00
50093;BME280;35974;47.752;10.290;2023-02-23T03:21:55;93492.31;;;6.35;100.00
50093;BME280;35974;47.752;10.290;2023-02-23T03:24:57;93486.31;;;6.34;100.00
50093;BME280;35974;47.752;10.290;2023-02-23T03:27:57;93475.38;;;6.17;100.00
50093;BME280;35974;47.752;10.290;2023-02-23T03:31:05;93454.69;;;6.09;100.00
50093;BME280;35974;47.752;10.290;2023-02-23T03:40:28;93492.81;;;6.45;100.00
50093;BME280;35974;47.752;10.290;2023-02-23T03:43:23;93478.09;;;6.31;100.00
50093;BME280;35974;47.752;10.290;2023-02-23T03:46:12;93494.28;;;6.33;100.00
50093;BME280;35974;47.752;10.290;2023-02-23T03:49:00;93468.69;;;6.08;100.00
50093;BME280;35974;47.752;10.290;2023-02-23T03:51:53;93491.09;;;6.31;100.00
50093;BME280;35974;47.752;10.290;2023-02-23T03:54:48;93490.25;;;6.30;100.00
50093;BME280;35974;47.752;10.290;2023-02-23T03:57:38;93472.66;;;6.26;100.00
50093;BME280;35974;47.752;10.290;2023-02-23T04:00:31;93475.06;;;6.27;100.00
50093;BME280;35974;47.752;10.290;2023-02-23T04:03:18;93482.28;;;6.32;100.00
50093;BME280;35974;47.752;10.290;2023-02-23T04:06:07;93486.63;;;6.25;100.00
50093;BME280;35974;47.752;10.290;2023-02-23T04:08:56;93475.25;;;6.26;100.00
50093;BME280;35974;47.752;10.290;2023-02-23T04:11:51;93488.63;;;6.22;100.00
50093;BME280;35974;47.752;10.290;2023-02-23T04:14:47;93474.28;;;6.33;100.00
50093;BME280;35974;47.752;10.290;2023-02-23T04:17:18;93479.53;;;6.40;100.00
50093;BME280;35974;47.752;10.290;2023-02-23T04:19:50;93486.38;;;6.41;100.00
50093;BME280;35974;47.752;10.290;2023-02-23T04:22:16;93483.16;;;6.39;100.00
50093;BME280;35974;47.752;10.290;2023-02-23T04:24:43;93494.63;;;6.51;100.00
50093;BME280;35974;47.752;10.290;2023-02-23T04:27:12;93485.19;;;6.44;100.00
50093;BME280;35974;47.752;10.290;2023-02-23T04:29:39;93471.88;;;6.32;100.00
50093;BME280;35974;47.752;10.290;2023-02-23T04:32:06;93472.75;;;6.39;100.00
50093;BME280;35974;47.752;10.290;2023-02-23T04:34:36;93473.50;;;6.33;100.00
50093;BME280;35974;47.752;10.290;2023-02-23T04:37:02;93487.63;;;6.45;100.00
50093;BME280;35974;47.752;10.290;2023-02-23T04:39:29;93480.47;;;6.54;100.00
50093;BME280;35974;47.752;10.290;2023-02-23T04:41:55;93482.88;;;6.55;100.00
50093;BME280;35974;47.752;10.290;2023-02-23T04:44:21;93475.84;;;6.49;100.00
50093;BME280;35974;47.752;10.290;2023-02-23T04:46:48;93473.59;;;6.46;100.00
50093;BME280;35974;47.752;10.290;2023-02-23T04:49:14;93500.47;;;6.53;100.00
50093;BME280;35974;47.752;10.290;2023-02-23T04:51:41;93469.28;;;6.32;100.00
50093;BME280;35974;47.752;10.290;2023-02-23T04:54:07;93491.94;;;6.38;100.00
50093;BME280;35974;47.752;10.290;2023-02-23T04:56:34;93477.84;;;6.26;100.00
50093;BME280;35974;47.752;10.290;2023-02-23T04:59:01;93489.81;;;6.48;100.00
50093;BME280;35974;47.752;10.290;2023-02-23T05:01:27;93485.63;;;6.47;100.00
50093;BME280;35974;47.752;10.290;2023-02-23T05:03:54;93478.94;;;6.38;100.00
50093;BME280;35974;47.752;10.290;2023-02-23T05:06:21;93454.09;;;6.07;100.00
50093;BME280;35974;47.752;10.290;2023-02-23T05:08:47;93477.72;;;6.12;100.00
50093;BME280;35974;47.752;10.290;2023-02-23T05:11:14;93458.06;;;6.03;100.00
50093;BME280;35974;47.752;10.290;2023-02-23T05:13:41;93493.81;;;6.22;100.00
50093;BME280;35974;47.752;10.290;2023-02-23T05:16:07;93475.25;;;6.04;100.00
50093;BME280;35974;47.752;10.290;2023-02-23T05:18:34;93464.84;;;6.04;100.00
50093;BME280;35974;47.752;10.290;2023-02-23T05:21:03;93476.25;;;6.25;100.00
50093;BME280;35974;47.752;10.290;2023-02-23T05:23:29;93473.03;;;6.22;100.00
50093;BME280;35974;47.752;10.290;2023-02-23T05:26:08;93483.66;;;6.28;100.00
50093;BME280;35974;47.752;10.290;2023-02-23T05:28:38;93487.38;;;6.18;100.00
50093;BME280;35974;47.752;10.290;2023-02-23T05:31:05;93481.25;;;6.26;100.00
50093;BME280;35974;47.752;10.290;2023-02-23T05:33:32;93489.09;;;6.33;100.00
50093;BME280;35974;47.752;10.290;2023-02-23T05:36:04;93480.19;;;6.20;100.00
50093;BME280;35974;47.752;10.290;2023-02-23T05:38:30;93466.47;;;6.05;100.00
50093;BME280;35974;47.752;10.290;2023-02-23T05:40:57;93471.16;;;5.95;100.00
50093;BME280;35974;47.752;10.290;2023-02-23T05:43:23;93487.25;;;6.05;100.00
50093;BME280;35974;47.752;10.290;2023-02-23T05:45:50;93479.59;;;5.97;100.00
50093;BME280;35974;47.752;10.290;2023-02-23T05:48:16;93485.56;;;5.97;100.00
50093;BME280;35974;47.752;10.290;2023-02-23T05:50:42;93458.28;;;5.86;100.00
50093;BME280;35974;47.752;10.290;2023-02-23T05:53:09;93453.94;;;5.94;100.00
50093;BME280;35974;47.752;10.290;2023-02-23T05:55:35;93460.91;;;6.08;100.00
50093;BME280;35974;47.752;10.290;2023-02-23T05:58:02;93477.72;;;6.12;100.00
50093;BME280;35974;47.752;10.290;2023-02-23T06:00:29;93476.13;;;6.11;100.00
50093;BME280;35974;47.752;10.290;2023-02-23T06:02:55;93483.28;;;6.09;100.00
50093;BME280;35974;47.752;10.290;2023-02-23T06:05:22;93468.47;;;6.03;100.00
50093;BME280;35974;47.752;10.290;2023-02-23T06:07:48;93473.72;;;6.10;100.00
50093;BME280;35974;47.752;10.290;2023-02-23T06:10:15;93491.34;;;6.14;100.00
50093;BME280;35974;47.752;10.290;2023-02-23T06:12:42;93482.47;;;6.09;100.00
50093;BME280;35974;47.752;10.290;2023-02-23T06:15:08;93496.91;;;6.11;100.00
50093;BME280;35974;47.752;10.290;2023-02-23T06:17:35;93492.19;;;6.21;100.00
50093;BME280;35974;47.752;10.290;2023-02-23T06:20:03;93503.19;;;6.23;100.00
50093;BME280;35974;47.752;10.290;2023-02-23T06:22:31;93484.53;;;6.13;100.00
50093;BME280;35974;47.752;10.290;2023-02-23T06:24:57;93502.22;;;6.25;100.00
50093;BME280;35974;47.752;10.290;2023-02-23T06:27:24;93486.25;;;6.28;100.00
50093;BME280;35974;47.752;10.290;2023-02-23T06:29:51;93466.94;;;6.15;100.00
50093;BME280;35974;47.752;10.290;2023-02-23T06:32:17;93498.38;;;6.42;100.00
50093;BME280;35974;47.752;10.290;2023-02-23T06:34:44;93487.97;;;6.42;100.00
50093;BME280;35974;47.752;10.290;2023-02-23T06:37:10;93489.88;;;6.33;100.00
50093;BME280;35974;47.752;10.290;2023-02-23T06:39:37;93510.81;;;6.47;100.00
50093;BME280;35974;47.752;10.290;2023-02-23T06:42:06;93503.56;;;6.42;100.00
50093;BME280;35974;47.752;10.290;2023-02-23T06:44:33;93498.88;;;6.31;100.00
50093;BME280;35974;47.752;10.290;2023-02-23T06:47:03;93526.41;;;6.47;100.00
50093;BME280;35974;47.752;10.290;2023-02-23T06:49:31;93522.00;;;6.47;100.00
50093;BME280;35974;47.752;10.290;2023-02-23T06:51:57;93499.50;;;6.33;100.00
50093;BME280;35974;47.752;10.290;2023-02-23T06:54:24;93516.75;;;6.40;100.00
50093;BME280;35974;47.752;10.290;2023-02-23T06:56:51;93521.91;;;6.34;100.00
50093;BME280;35974;47.752;10.290;2023-02-23T06:59:18;93508.50;;;6.15;100.00
50093;BME280;35974;47.752;10.290;2023-02-23T07:01:44;93520.22;;;6.26;100.00
50093;BME280;35974;47.752;10.290;2023-02-23T07:04:11;93510.13;;;6.16;100.00
50093;BME280;35974;47.752;10.290;2023-02-23T07:06:41;93518.19;;;6.21;100.00
50093;BME280;35974;47.752;10.290;2023-02-23T07:09:07;93512.97;;;6.21;100.00
50093;BME280;35974;47.752;10.290;2023-02-23T07:11:34;93536.34;;;6.43;100.00
50093;BME280;35974;47.752;10.290;2023-02-23T07:14:00;93540.38;;;6.46;100.00
50093;BME280;35974;47.752;10.290;2023-02-23T07:16:28;93542.38;;;6.44;100.00
50093;BME280;35974;47.752;10.290;2023-02-23T07:18:55;93541.31;;;6.38;100.00
50093;BME280;35974;47.752;10.290;2023-02-23T07:21:21;93529.56;;;6.42;100.00
50093;BME280;35974;47.752;10.290;2023-02-23T07:23:48;93537.59;;;6.47;100.00
50093;BME280;35974;47.752;10.290;2023-02-23T07:26:17;93528.78;;;6.48;100.00
50093;BME280;35974;47.752;10.290;2023-02-23T07:28:43;93529.94;;;6.39;100.00
50093;BME280;35974;47.752;10.290;2023-02-23T07:31:10;93516.56;;;6.20;100.00
50093;BME280;35974;47.752;10.290;2023-02-23T07:33:36;93524.22;;;6.29;100.00
50093;BME280;35974;47.752;10.290;2023-02-23T07:36:03;93530.78;;;6.46;100.00
50093;BME280;35974;47.752;10.290;2023-02-23T07:38:30;93520.38;;;6.46;100.00
50093;BME280;35974;47.752;10.290;2023-02-23T07:40:56;93522.00;;;6.47;100.00
50093;BME280;35974;47.752;10.290;2023-02-23T07:43:23;93533.25;;;6.54;100.00
50093;BME280;35974;47.752;10.290;2023-02-23T07:45:50;93545.28;;;6.55;100.00
50093;BME280;35974;47.752;10.290;2023-02-23T07:48:17;93523.25;;;6.30;100.00
50093;BME280;35974;47.752;10.290;2023-02-23T07:50:44;93532.03;;;6.50;100.00
50093;BME280;35974;47.752;10.290;2023-02-23T07:53:12;93545.59;;;6.46;100.00
50093;BME280;35974;47.752;10.290;2023-02-23T07:55:40;93522.16;;;6.17;100.00
50093;BME280;35974;47.752;10.290;2023-02-23T07:58:08;93551.41;;;6.26;100.00
50093;BME280;35974;47.752;10.290;2023-02-23T08:00:36;93519.56;;;6.17;100.00
50093;BME280;35974;47.752;10.290;2023-02-23T08:03:06;93520.50;;;5.95;100.00
50093;BME280;35974;47.752;10.290;2023-02-23T08:05:32;93531.41;;;6.27;100.00
50093;BME280;35974;47.752;10.290;2023-02-23T08:08:00;93524.53;;;6.19;100.00
50093;BME280;35974;47.752;10.290;2023-02-23T08:10:26;93544.88;;;6.15;100.00
50093;BME280;35974;47.752;10.290;2023-02-23T08:12:52;93526.56;;;6.23;100.00
50093;BME280;35974;47.752;10.290;2023-02-23T08:15:19;93540.06;;;6.12;100.00
50093;BME280;35974;47.752;10.290;2023-02-23T08:17:46;93529.38;;;5.85;100.00
50093;BME280;35974;47.752;10.290;2023-02-23T08:20:12;93552.75;;;5.85;100.00
50093;BME280;35974;47.752;10.290;2023-02-23T08:22:40;93515.22;;;6.03;100.00
50093;BME280;35974;47.752;10.290;2023-02-23T08:25:16;93539.31;;;6.18;100.00
50093;BME280;35974;47.752;10.290;2023-02-23T08:27:42;93530.50;;;6.13;100.00
50093;BME280;35974;47.752;10.290;2023-02-23T08:30:09;93525.91;;;6.15;100.00
50093;BME280;35974;47.752;10.290;2023-02-23T08:32:36;93536.66;;;6.33;100.00
50093;BME280;35974;47.752;10.290;2023-02-23T08:35:03;93529.56;;;6.42;100.00
50093;BME280;35974;47.752;10.290;2023-02-23T08:37:30;93534.13;;;6.40;100.00
50093;BME280;35974;47.752;10.290;2023-02-23T08:39:57;93523.59;;;6.48;100.00
50093;BME280;35974;47.752;10.290;2023-02-23T08:42:24;93538.50;;;6.61;100.00
50093;BME280;35974;47.752;10.290;2023-02-23T08:44:52;93534.94;;;6.62;100.00
50093;BME280;35974;47.752;10.290;2023-02-23T08:47:19;93548.97;;;6.68;100.00
50093;BME280;35974;47.752;10.290;2023-02-23T08:49:47;93522.97;;;6.68;100.00
50093;BME280;35974;47.752;10.290;2023-02-23T08:52:14;93513.31;;;6.62;100.00
50093;BME280;35974;47.752;10.290;2023-02-23T08:54:47;93515.50;;;6.86;100.00
50093;BME280;35974;47.752;10.290;2023-02-23T08:57:13;93528.38;;;6.94;100.00
50093;BME280;35974;47.752;10.290;2023-02-23T08:59:43;93518.25;;;6.78;100.00
50093;BME280;35974;47.752;10.290;2023-02-23T09:02:11;93532.72;;;6.87;100.00
50093;BME280;35974;47.752;10.290;2023-02-23T09:04:38;93548.59;;;7.27;100.00
50093;BME280;35974;47.752;10.290;2023-02-23T09:07:09;93552.66;;;7.37;100.00
50093;BME280;35974;47.752;10.290;2023-02-23T09:09:38;93523.41;;;7.35;100.00
50093;BME280;35974;47.752;10.290;2023-02-23T09:12:08;93535.91;;;7.53;100.00
50093;BME280;35974;47.752;10.290;2023-02-23T09:22:23;93554.31;;;7.44;100.00
50093;BME280;35974;47.752;10.290;2023-02-23T09:24:49;93513.59;;;7.02;100.00
50093;BME280;35974;47.752;10.290;2023-02-23T09:27:15;93549.34;;;7.21;100.00
50093;BME280;35974;47.752;10.290;2023-02-23T09:29:42;93540.16;;;7.25;100.00
50093;BME280;35974;47.752;10.290;2023-02-23T09:32:10;93541.09;;;7.46;100.00
50093;BME280;35974;47.752;10.290;2023-02-23T09:34:37;93538.69;;;7.44;100.00
50093;BME280;35974;47.752;10.290;2023-02-23T09:37:04;93538.72;;;7.51;100.00
50093;BME280;35974;47.752;10.290;2023-02-23T09:39:30;93537.53;;;7.60;100.00
50093;BME280;35974;47.752;10.290;2023-02-23T09:42:19;93558.84;;;7.77;100.00
50093;BME280;35974;47.752;10.290;2023-02-23T09:45:00;93566.63;;;7.64;100.00
50093;BME280;35974;47.752;10.290;2023-02-23T09:47:37;93564.03;;;7.70;100.00
50093;BME280;35974;47.752;10.290;2023-02-23T09:50:20;93568.84;;;7.67;100.00
50093;BME280;35974;47.752;10.290;2023-02-23T09:52:54;93571.31;;;7.82;100.00
50093;BME280;35974;47.752;10.290;2023-02-23T09:55:23;93575.81;;;8.08;100.00
50093;BME280;35974;47.752;10.290;2023-02-23T09:57:51;93570.22;;;8.18;100.00
50093;BME280;35974;47.752;10.290;2023-02-23T10:00:24;93578.66;;;8.33;100.00
50093;BME280;35974;47.752;10.290;2023-02-23T10:03:29;93570.66;;;8.28;100.00
50093;BME280;35974;47.752;10.290;2023-02-23T10:06:03;93563.88;;;8.40;100.00
50093;BME280;35974;47.752;10.290;2023-02-23T10:11:42;93573.16;;;8.70;100.00
50093;BME280;35974;47.752;10.290;2023-02-23T10:14:59;93567.56;;;8.93;100.00
50093;BME280;35974;47.752;10.290;2023-02-23T10:20:31;93571.97;;;8.99;100.00
50093;BME280;35974;47.752;10.290;2023-02-23T10:23:03;93571.97;;;8.99;100.00
50093;BME280;35974;47.752;10.290;2023-02-23T10:25:35;93547.06;;;8.90;100.00
50093;BME280;35974;47.752;10.290;2023-02-23T10:28:03;93553.91;;;9.04;100.00
50093;BME280;35974;47.752;10.290;2023-02-23T10:30:32;93566.72;;;9.26;100.00
50093;BME280;35974;47.752;10.290;2023-02-23T10:35:33;93559.91;;;9.25;100.00
50093;BME280;35974;47.752;10.290;2023-02-23T10:38:00;93555.88;;;9.22;100.00
50093;BME280;35974;47.752;10.290;2023-02-23T10:40:30;93535.81;;;9.16;100.00
50093;BME280;35974;47.752;10.290;2023-02-23T10:43:02;93567.53;;;9.33;100.00
50093;BME280;35974;47.752;10.290;2023-02-23T10:45:35;93550.22;;;9.45;100.00
50093;BME280;35974;47.752;10.290;2023-02-23T10:50:32;93544.63;;;9.35;100.00
50093;BME280;35974;47.752;10.290;2023-02-23T10:53:16;93550.63;;;9.56;100.00
50093;BME280;35974;47.752;10.290;2023-02-23T10:55:45;93552.59;;;9.67;100.00
50093;BME280;35974;47.752;10.290;2023-02-23T10:58:18;93553.34;;;9.81;100.00
50093;BME280;35974;47.752;10.290;2023-02-23T11:00:55;93545.25;;;9.89;100.00
50093;BME280;35974;47.752;10.290;2023-02-23T11:03:32;93516.25;;;9.59;100.00
50093;BME280;35974;47.752;10.290;2023-02-23T11:06:01;93543.22;;;9.98;100.00
50093;BME280;35974;47.752;10.290;2023-02-23T11:11:21;93520.13;;;9.23;100.00
50093;BME280;35974;47.752;10.290;2023-02-23T11:13:50;93511.75;;;8.94;100.00
50093;BME280;35974;47.752;10.290;2023-02-23T11:16:20;93545.47;;;9.15;100.00
50093;BME280;35974;47.752;10.290;2023-02-23T11:21:21;93533.66;;;9.78;100.00
50093;BME280;35974;47.752;10.290;2023-02-23T11:23:51;93527.97;;;9.95;100.00
50093;BME280;35974;47.752;10.290;2023-02-23T11:26:24;93498.66;;;9.79;100.00
50093;BME280;35974;47.752;10.290;2023-02-23T11:28:57;93499.50;;;9.73;100.00
50093;BME280;35974;47.752;10.290;2023-02-23T11:31:32;93497.28;;;10.15;100.00
50093;BME280;35974;47.752;10.290;2023-02-23T11:34:03;93489.69;;;10.07;100.00
50093;BME280;35974;47.752;10.290;2023-02-23T11:36:32;93506.84;;;10.35;100.00
50093;BME280;35974;47.752;10.290;2023-02-23T11:39:20;93500.44;;;10.62;100.00
50093;BME280;35974;47.752;10.290;2023-02-23T11:44:30;93491.72;;;10.69;98.45
50093;BME280;35974;47.752;10.290;2023-02-23T11:46:59;93470.72;;;10.18;97.00
50093;BME280;35974;47.752;10.290;2023-02-23T11:49:31;93488.78;;;10.58;95.86
50093;BME280;35974;47.752;10.290;2023-02-23T11:52:01;93477.69;;;10.31;95.44
50093;BME280;35974;47.752;10.290;2023-02-23T11:54:31;93493.59;;;10.87;95.16
50093;BME280;35974;47.752;10.290;2023-02-23T11:57:01;93481.78;;;11.03;94.79
50093;BME280;35974;47.752;10.290;2023-02-23T11:59:33;93454.66;;;10.72;94.33
50093;BME280;35974;47.752;10.290;2023-02-23T12:02:18;93481.66;;;11.34;90.42
50093;BME280;35974;47.752;10.290;2023-02-23T12:04:50;93466.16;;;11.33;90.41
50093;BME280;35974;47.752;10.290;2023-02-23T12:10:28;93476.25;;;11.66;86.27
50093;BME280;35974;47.752;10.290;2023-02-23T12:13:04;93471.75;;;11.73;89.13
50093;BME280;35974;47.752;10.290;2023-02-23T12:18:42;93458.97;;;12.26;86.94
50093;BME280;35974;47.752;10.290;2023-02-23T12:24:17;93451.00;;;12.21;84.35
50093;BME280;35974;47.752;10.290;2023-02-23T12:26:53;93452.50;;;11.98;81.75
50093;BME280;35974;47.752;10.290;2023-02-23T12:29:38;93446.31;;;12.23;80.69
50093;BME280;35974;47.752;10.290;2023-02-23T12:35:12;93445.53;;;11.73;85.57
50093;BME280;35974;47.752;10.290;2023-02-23T12:38:02;93452.66;;;11.85;84.73
50093;BME280;35974;47.752;10.290;2023-02-23T12:40:35;93436.41;;;11.27;87.12
50093;BME280;35974;47.752;10.290;2023-02-23T12:45:51;93450.22;;;11.53;87.05
50093;BME280;35974;47.752;10.290;2023-02-23T12:48:34;93442.78;;;11.68;86.63
50093;BME280;35974;47.752;10.290;2023-02-23T12:51:20;93431.41;;;11.75;85.96
50093;BME280;35974;47.752;10.290;2023-02-23T12:53:47;93450.38;;;12.07;82.85
50093;BME280;35974;47.752;10.290;2023-02-23T12:56:28;93449.38;;;12.20;82.21
50093;BME280;35974;47.752;10.290;2023-02-23T13:02:05;93433.31;;;12.28;81.35
50093;BME280;35974;47.752;10.290;2023-02-23T13:15:34;93438.19;;;12.13;80.96
50093;BME280;35974;47.752;10.290;2023-02-23T13:18:20;93428.22;;;12.33;81.05
50093;BME280;35974;47.752;10.290;2023-02-23T13:20:58;93435.81;;;12.23;82.09
50093;BME280;35974;47.752;10.290;2023-02-23T13:23:40;93414.06;;;12.34;80.67
50093;BME280;35974;47.752;10.290;2023-02-23T13:26:30;93439.91;;;12.61;79.75
50093;BME280;35974;47.752;10.290;2023-02-23T13:29:05;93435.00;;;12.53;80.96
50093;BME280;35974;47.752;10.290;2023-02-23T13:31:35;93436.22;;;12.38;81.17
50093;BME280;35974;47.752;10.290;2023-02-23T13:34:06;93418.13;;;12.18;80.16
50093;BME280;35974;47.752;10.290;2023-02-23T13:36:35;93416.44;;;12.24;82.54
50093;BME280;35974;47.752;10.290;2023-02-23T13:42:30;93423.00;;;12.57;79.84
50093;BME280;35974;47.752;10.290;2023-02-23T13:51:05;93413.81;;;12.12;82.14
50093;BME280;35974;47.752;10.290;2023-02-23T13:53:43;93419.69;;;12.50;78.17
50093;BME280;35974;47.752;10.290;2023-02-23T13:56:23;93401.06;;;12.27;80.48
50093;BME280;35974;47.752;10.290;2023-02-23T14:01:26;93411.38;;;12.53;76.37
50093;BME280;35974;47.752;10.290;2023-02-23T14:03:56;93421.47;;;12.25;78.64
50093;BME280;35974;47.752;10.290;2023-02-23T14:06:26;93416.31;;;12.19;80.17
50093;BME280;35974;47.752;10.290;2023-02-23T14:09:05;93407.41;;;12.20;79.34
50093;BME280;35974;47.752;10.290;2023-02-23T14:11:37;93416.31;;;12.19;79.89
50093;BME280;35974;47.752;10.290;2023-02-23T14:14:10;93386.09;;;11.86;80.43
50093;BME280;35974;47.752;10.290;2023-02-23T14:16:38;93414.91;;;11.86;81.14
50093;BME280;35974;47.752;10.290;2023-02-23T14:19:09;93346.28;;;11.47;80.31
50093;BME280;35974;47.752;10.290;2023-02-23T14:21:50;93414.78;;;11.81;80.79
50093;BME280;35974;47.752;10.290;2023-02-23T14:24:24;93386.00;;;11.62;82.27
50093;BME280;35974;47.752;10.290;2023-02-23T14:29:43;93412.84;;;11.76;82.91
50093;BME280;35974;47.752;10.290;2023-02-23T14:34:52;93411.94;;;11.82;83.80
50093;BME280;35974;47.752;10.290;2023-02-23T14:37:29;93388.06;;;11.60;85.73
50093;BME280;35974;47.752;10.290;2023-02-23T14:40:13;93395.78;;;11.55;85.78
50093;BME280;35974;47.752;10.290;2023-02-23T14:42:46;93389.47;;;11.44;86.60
50093;BME280;35974;47.752;10.290;2023-02-23T14:45:19;93401.00;;;11.55;86.52
50093;BME280;35974;47.752;10.290;2023-02-23T14:47:51;93403.56;;;11.43;87.38
50093;BME280;35974;47.752;10.290;2023-02-23T14:50:46;93406.84;;;11.39;88.31
50093;BME280;35974;47.752;10.290;2023-02-23T14:53:18;93400.91;;;11.31;89.58
50093;BME280;35974;47.752;10.290;2023-02-23T14:55:46;93382.00;;;11.29;89.49
50093;BME280;35974;47.752;10.290;2023-02-23T14:58:31;93395.66;;;11.31;89.02
50093;BME280;35974;47.752;10.290;2023-02-23T15:00:58;93393.63;;;11.33;88.43
50093;BME280;35974;47.752;10.290;2023-02-23T15:03:25;93385.03;;;11.45;87.23
50093;BME280;35974;47.752;10.290;2023-02-23T15:05:59;93384.75;;;11.34;87.42
50093;BME280;35974;47.752;10.290;2023-02-23T15:08:28;93380.03;;;11.25;88.54